createdAt,value
2024-03-24T00:01:54.168Z,62.01
2024-03-24T00:04:24.474Z,61.75
2024-03-24T00:06:53.217Z,61.67
2024-03-24T00:09:21.910Z,61.86
2024-03-24T00:15:00.663Z,62.10
2024-03-24T00:17:29.689Z,62.22
2024-03-24T00:19:58.527Z,62.29
2024-03-24T00:22:27.957Z,62.33
2024-03-24T00:27:45.240Z,62.37
2024-03-24T00:30:14.414Z,62.58
2024-03-24T00:32:43.358Z,62.62
2024-03-24T00:35:15.771Z,62.87
2024-03-24T00:37:44.627Z,63.39
2024-03-24T00:40:15.572Z,63.64
2024-03-24T00:42:45.333Z,63.79
2024-03-24T00:45:13.954Z,63.68
2024-03-24T00:47:43.321Z,63.78
2024-03-24T00:50:14.075Z,63.95
2024-03-24T00:52:42.917Z,63.89
2024-03-24T00:55:11.681Z,63.96
2024-03-24T00:57:49.573Z,64.02
2024-03-24T01:00:18.711Z,64.33
2024-03-24T01:02:57.519Z,64.38
2024-03-24T01:05:26.143Z,64.66
2024-03-24T01:08:00.651Z,64.33
2024-03-24T01:10:29.748Z,64.42
2024-03-24T01:12:58.554Z,64.36
2024-03-24T01:15:27.906Z,64.13
2024-03-24T01:17:56.915Z,64.32
2024-03-24T01:20:26.543Z,64.42
2024-03-24T01:22:55.228Z,64.69
2024-03-24T01:25:23.996Z,64.78
2024-03-24T01:27:52.611Z,65.11
2024-03-24T01:30:21.634Z,65.31
2024-03-24T01:32:50.532Z,65.38
2024-03-24T01:35:20.039Z,65.31
2024-03-24T01:37:51.319Z,65.61
2024-03-24T01:40:20.170Z,66.04
2024-03-24T01:42:48.846Z,66.04
2024-03-24T01:48:53.299Z,66.16
2024-03-24T01:51:30.699Z,66.13
2024-03-24T01:54:00.002Z,65.94
2024-03-24T01:56:32.252Z,66.10
2024-03-24T01:59:01.007Z,66.19
2024-03-24T02:01:42.393Z,66.36
2024-03-24T02:04:12.215Z,66.46
2024-03-24T02:06:41.970Z,66.50
2024-03-24T02:09:15.786Z,66.25
2024-03-24T02:11:53.636Z,66.56
2024-03-24T02:20:31.651Z,66.77
2024-03-24T02:37:02.923Z,66.74
2024-03-24T02:39:36.655Z,66.87
2024-03-24T02:42:08.272Z,66.76
2024-03-24T02:44:39.066Z,66.65
2024-03-24T02:47:21.621Z,66.70
2024-03-24T02:49:52.592Z,66.80
2024-03-24T02:52:24.810Z,66.75
2024-03-24T02:54:53.444Z,66.96
2024-03-24T02:57:47.088Z,67.44
2024-03-24T03:00:27.425Z,69.54
2024-03-24T03:03:27.339Z,69.86
2024-03-24T03:06:36.429Z,68.81
2024-03-24T03:09:46.125Z,68.44
2024-03-24T03:12:17.633Z,68.06
2024-03-24T03:15:27.223Z,68.01
2024-03-24T03:18:50.390Z,67.87
2024-03-24T03:28:59.140Z,68.14
2024-03-24T03:34:24.986Z,69.97
2024-03-24T03:37:07.889Z,69.42
2024-03-24T03:43:23.063Z,68.77
2024-03-24T03:49:23.363Z,68.76
2024-03-24T03:53:12.300Z,68.90
2024-03-24T03:56:02.314Z,68.94
2024-03-24T04:08:22.621Z,68.64
2024-03-24T04:11:17.967Z,68.80
2024-03-24T04:13:59.672Z,68.80
2024-03-24T04:18:21.061Z,68.82
2024-03-24T04:22:30.633Z,68.79
2024-03-24T04:24:39.293Z,68.86
2024-03-24T04:27:41.281Z,68.75
2024-03-24T04:30:23.351Z,68.77
2024-03-24T04:32:58.250Z,68.77
2024-03-24T04:54:22.744Z,69.10
2024-03-24T04:59:47.597Z,69.16
2024-03-24T05:02:16.758Z,69.22
2024-03-24T05:04:45.595Z,69.22
2024-03-24T05:07:14.466Z,69.11
2024-03-24T05:09:44.503Z,69.10
2024-03-24T05:12:14.404Z,69.09
2024-03-24T05:14:43.234Z,68.94
2024-03-24T05:17:13.411Z,68.96
2024-03-24T05:19:42.342Z,69.06
2024-03-24T05:22:10.926Z,69.12
2024-03-24T05:24:39.535Z,69.00
2024-03-24T05:27:08.303Z,68.98
2024-03-24T05:29:37.191Z,69.19
2024-03-24T05:32:06.619Z,68.96
2024-03-24T05:34:35.717Z,69.14
2024-03-24T05:37:04.386Z,69.05
2024-03-24T05:39:33.153Z,69.14
2024-03-24T05:42:03.150Z,69.14
2024-03-24T05:44:53.194Z,69.41
2024-03-24T05:47:23.467Z,69.54
2024-03-24T05:49:54.829Z,69.36
2024-03-24T05:52:23.608Z,69.29
2024-03-24T05:54:52.320Z,69.42
2024-03-24T05:57:21.078Z,69.35
2024-03-24T05:59:49.974Z,69.29
2024-03-24T06:02:23.140Z,69.29
2024-03-24T06:04:51.797Z,69.26
2024-03-24T06:07:20.617Z,69.10
2024-03-24T06:09:49.361Z,69.20
2024-03-24T06:12:31.443Z,69.19
2024-03-24T06:15:00.292Z,69.29
2024-03-24T06:17:29.233Z,69.20
2024-03-24T06:19:57.840Z,68.99
2024-03-24T06:22:26.482Z,69.10
2024-03-24T06:24:55.393Z,68.98
2024-03-24T06:27:24.239Z,69.14
2024-03-24T06:29:55.852Z,69.32
2024-03-24T06:32:24.630Z,69.23
2024-03-24T06:34:53.326Z,69.44
2024-03-24T06:37:22.165Z,69.40
2024-03-24T06:40:05.226Z,69.38
2024-03-24T06:42:45.173Z,69.03
2024-03-24T06:45:17.807Z,69.03
2024-03-24T06:47:46.664Z,69.17
2024-03-24T06:50:15.673Z,69.20
2024-03-24T06:52:44.236Z,69.17
2024-03-24T06:55:13.036Z,69.09
2024-03-24T06:57:41.813Z,69.29
2024-03-24T07:00:13.336Z,69.28
2024-03-24T07:02:42.151Z,69.30
2024-03-24T07:05:10.925Z,69.37
2024-03-24T07:07:40.125Z,69.39
2024-03-24T07:10:09.771Z,69.28
2024-03-24T07:12:38.575Z,69.37
2024-03-24T07:15:07.757Z,69.22
2024-03-24T07:17:36.535Z,69.40
2024-03-24T07:20:06.144Z,69.38
2024-03-24T07:22:35.186Z,69.50
2024-03-24T07:25:04.222Z,69.48
2024-03-24T07:27:33.028Z,69.43
2024-03-24T07:30:01.826Z,69.38
2024-03-24T07:32:30.503Z,69.59
2024-03-24T07:34:59.293Z,69.62
2024-03-24T07:37:29.495Z,69.48
2024-03-24T07:39:58.231Z,69.50
2024-03-24T07:42:26.967Z,69.56
2024-03-24T07:44:55.692Z,69.53
2024-03-24T07:47:27.629Z,69.47
2024-03-24T07:49:56.737Z,69.59
2024-03-24T07:52:25.501Z,69.60
2024-03-24T07:54:54.123Z,69.60
2024-03-24T07:57:22.913Z,69.58
2024-03-24T07:59:54.629Z,69.55
2024-03-24T08:02:26.499Z,69.36
2024-03-24T08:04:57.570Z,69.40
2024-03-24T08:07:29.312Z,69.23
2024-03-24T08:09:57.907Z,69.41
2024-03-24T08:12:26.688Z,69.61
2024-03-24T08:14:55.528Z,69.65
2024-03-24T08:17:30.106Z,69.78
2024-03-24T08:19:58.783Z,69.74
2024-03-24T08:22:27.569Z,69.89
2024-03-24T08:24:56.372Z,69.85
2024-03-24T08:27:25.019Z,69.76
2024-03-24T08:29:53.788Z,69.75
2024-03-24T08:32:22.514Z,69.94
2024-03-24T08:34:53.023Z,70.06
2024-03-24T08:37:21.677Z,70.08
2024-03-24T08:39:51.111Z,69.82
2024-03-24T08:42:23.326Z,69.83
2024-03-24T08:44:56.024Z,69.98
2024-03-24T08:47:26.138Z,69.96
2024-03-24T08:49:54.918Z,69.97
2024-03-24T08:52:23.616Z,70.16
2024-03-24T08:54:52.447Z,70.11
2024-03-24T08:57:21.295Z,70.24
2024-03-24T08:59:50.251Z,70.17
2024-03-24T09:02:19.556Z,69.94
2024-03-24T09:04:48.250Z,70.23
2024-03-24T09:07:16.953Z,70.02
2024-03-24T09:09:50.632Z,70.04
2024-03-24T09:12:19.226Z,69.95
2024-03-24T09:14:47.810Z,69.87
2024-03-24T09:17:17.027Z,70.18
2024-03-24T09:19:48.571Z,71.04
2024-03-24T09:22:18.079Z,71.40
2024-03-24T09:24:47.200Z,71.27
2024-03-24T09:27:15.847Z,70.80
2024-03-24T09:29:44.862Z,70.53
2024-03-24T09:32:13.758Z,70.66
2024-03-24T09:34:44.283Z,70.71
2024-03-24T09:37:14.069Z,70.48
2024-03-24T09:39:42.866Z,70.38
2024-03-24T09:42:15.140Z,70.55
2024-03-24T09:44:44.352Z,70.54
2024-03-24T09:47:14.360Z,70.67
2024-03-24T09:49:45.097Z,70.24
2024-03-24T09:52:22.866Z,70.23
2024-03-24T09:54:51.896Z,70.26
2024-03-24T09:57:21.735Z,70.23
2024-03-24T09:59:51.550Z,70.38
2024-03-24T10:02:20.383Z,70.48
2024-03-24T10:04:49.729Z,70.25
2024-03-24T10:07:19.100Z,70.29
2024-03-24T10:09:47.853Z,70.16
2024-03-24T10:12:17.508Z,70.00
2024-03-24T10:14:47.241Z,70.23
2024-03-24T10:17:22.594Z,70.29
2024-03-24T10:19:53.622Z,70.28
2024-03-24T10:22:24.911Z,70.20
2024-03-24T10:24:54.344Z,69.93
2024-03-24T10:27:23.236Z,70.10
2024-03-24T10:29:55.242Z,69.96
2024-03-24T10:32:28.322Z,70.04
2024-03-24T10:34:57.588Z,69.98
2024-03-24T10:37:28.584Z,70.15
2024-03-24T10:39:57.675Z,70.08
2024-03-24T10:42:29.390Z,69.92
2024-03-24T10:45:00.015Z,69.92
2024-03-24T10:47:28.916Z,69.86
2024-03-24T10:50:00.565Z,69.79
2024-03-24T10:52:34.688Z,69.92
2024-03-24T10:55:03.602Z,70.07
2024-03-24T10:57:32.975Z,70.11
2024-03-24T11:00:02.607Z,70.28
2024-03-24T11:02:31.707Z,70.17
2024-03-24T11:05:03.206Z,70.20
2024-03-24T11:07:34.996Z,70.28
2024-03-24T11:10:06.526Z,70.10
2024-03-24T11:12:39.834Z,70.15
2024-03-24T11:15:11.503Z,70.19
2024-03-24T11:17:40.180Z,69.88
2024-03-24T11:20:19.311Z,70.09
2024-03-24T11:22:50.289Z,70.08
2024-03-24T11:25:20.189Z,70.04
2024-03-24T11:27:50.067Z,69.87
2024-03-24T11:30:20.593Z,69.71
2024-03-24T11:32:59.844Z,69.83
2024-03-24T11:35:31.314Z,69.98
2024-03-24T11:38:08.688Z,69.88
2024-03-24T11:40:40.603Z,69.81
2024-03-24T11:43:15.033Z,69.88
2024-03-24T11:45:47.764Z,69.79
2024-03-24T11:48:19.701Z,69.84
2024-03-24T11:50:52.883Z,69.73
2024-03-24T11:53:24.182Z,69.68
2024-03-24T11:55:54.393Z,69.96
2024-03-24T11:58:24.974Z,69.79
2024-03-24T12:00:54.363Z,69.66
2024-03-24T12:03:26.471Z,69.63
2024-03-24T12:05:56.396Z,69.64
2024-03-24T12:08:28.366Z,69.47
2024-03-24T12:10:57.359Z,69.50
2024-03-24T12:13:26.170Z,69.50
2024-03-24T12:15:55.013Z,69.65
2024-03-24T12:18:23.922Z,69.69
2024-03-24T12:20:52.947Z,69.53
2024-03-24T12:23:27.633Z,69.60
2024-03-24T12:25:56.458Z,69.68
2024-03-24T12:28:28.171Z,69.70
2024-03-24T12:31:03.176Z,69.76
2024-03-24T12:33:31.978Z,69.50
2024-03-24T12:36:01.077Z,69.86
2024-03-24T12:38:29.861Z,70.13
2024-03-24T12:41:00.256Z,70.24
2024-03-24T12:43:30.498Z,70.15
2024-03-24T12:46:04.748Z,70.21
2024-03-24T12:48:33.660Z,70.24
2024-03-24T12:51:02.489Z,70.14
2024-03-24T12:54:10.503Z,70.16
2024-03-24T12:56:40.597Z,69.99
2024-03-24T12:59:09.494Z,70.08
2024-03-24T13:01:38.968Z,70.32
2024-03-24T13:04:09.005Z,70.27
2024-03-24T13:06:41.560Z,70.01
2024-03-24T13:09:14.056Z,70.05
2024-03-24T13:11:42.657Z,70.17
2024-03-24T13:14:11.420Z,70.11
2024-03-24T13:17:06.317Z,70.08
2024-03-24T13:19:46.491Z,69.83
2024-03-24T13:22:18.332Z,69.97
2024-03-24T13:24:55.033Z,69.80
2024-03-24T13:27:59.762Z,69.98
2024-03-24T13:30:28.634Z,69.92
2024-03-24T13:32:57.331Z,70.02
2024-03-24T13:35:26.047Z,69.99
2024-03-24T13:38:13.512Z,69.89
2024-03-24T13:41:12.767Z,69.69
2024-03-24T13:43:55.756Z,69.47
2024-03-24T13:46:29.756Z,69.56
2024-03-24T13:49:03.795Z,69.48
2024-03-24T13:51:39.013Z,69.40
2024-03-24T13:54:10.398Z,69.44
2024-03-24T13:56:38.977Z,69.28
2024-03-24T13:59:07.865Z,69.28
2024-03-24T14:01:38.897Z,69.19
2024-03-24T14:04:07.989Z,68.96
2024-03-24T14:06:36.783Z,68.96
2024-03-24T14:09:06.830Z,68.70
2024-03-24T14:11:35.594Z,68.47
2024-03-24T14:14:35.600Z,68.28
2024-03-24T14:17:25.491Z,68.42
2024-03-24T14:20:01.075Z,68.22
2024-03-24T14:22:49.305Z,68.28
2024-03-24T14:25:28.826Z,68.30
2024-03-24T14:28:00.165Z,68.07
2024-03-24T14:30:50.301Z,67.65
2024-03-24T14:33:21.829Z,67.41
2024-03-24T14:36:14.258Z,67.45
2024-03-24T14:39:08.323Z,67.30
2024-03-24T14:41:49.100Z,67.56
2024-03-24T14:45:17.825Z,67.52
2024-03-24T14:48:16.518Z,67.33
2024-03-24T14:51:10.358Z,67.06
2024-03-24T14:53:46.365Z,66.93
2024-03-24T14:56:21.063Z,66.87
2024-03-24T14:58:58.542Z,66.90
2024-03-24T15:01:30.629Z,67.08
2024-03-24T15:04:13.405Z,67.23
2024-03-24T15:07:02.085Z,67.48
2024-03-24T15:09:30.827Z,67.78
2024-03-24T15:11:59.589Z,68.03
2024-03-24T15:14:30.431Z,68.28
2024-03-24T15:17:14.867Z,68.37
2024-03-24T15:19:43.757Z,68.25
2024-03-24T15:22:12.470Z,68.05
2024-03-24T15:24:41.313Z,68.05
2024-03-24T15:27:10.373Z,68.21
2024-03-24T15:29:39.115Z,68.44
2024-03-24T15:32:08.341Z,68.62
2024-03-24T15:34:39.923Z,68.76
2024-03-24T15:37:08.954Z,68.85
2024-03-24T15:39:37.662Z,68.90
2024-03-24T15:42:07.574Z,69.04
2024-03-24T15:44:36.446Z,68.92
2024-03-24T15:47:05.271Z,68.93
2024-03-24T15:49:34.077Z,68.91
2024-03-24T15:52:03.247Z,69.07
2024-03-24T15:54:33.539Z,69.16
2024-03-24T15:57:45.364Z,69.43
2024-03-24T16:00:37.405Z,69.62
2024-03-24T16:03:06.302Z,69.70
2024-03-24T16:05:35.088Z,69.38
2024-03-24T16:08:04.858Z,69.56
2024-03-24T16:10:39.195Z,69.61
2024-03-24T16:13:45.404Z,69.58
2024-03-24T16:16:18.666Z,69.16
2024-03-24T16:18:47.680Z,68.55
2024-03-24T16:21:50.081Z,68.93
2024-03-24T16:24:21.306Z,69.11
2024-03-24T16:26:50.489Z,68.75
2024-03-24T16:29:19.382Z,68.88
2024-03-24T16:31:48.105Z,68.89
2024-03-24T16:34:16.756Z,68.83
2024-03-24T16:36:46.110Z,68.67
2024-03-24T16:39:15.275Z,68.54
2024-03-24T16:41:46.413Z,68.51
2024-03-24T16:44:18.263Z,68.62
2024-03-24T16:46:46.874Z,68.56
2024-03-24T16:49:15.810Z,68.60
2024-03-24T16:51:44.612Z,68.39
2024-03-24T16:54:13.319Z,68.37
2024-03-24T16:56:42.029Z,68.26
2024-03-24T16:59:11.016Z,68.08
2024-03-24T17:01:40.019Z,68.20
2024-03-24T17:04:08.851Z,67.86
2024-03-24T17:06:37.734Z,68.01
2024-03-24T17:09:07.127Z,68.03
2024-03-24T17:11:36.070Z,67.62
2024-03-24T17:14:04.958Z,67.68
2024-03-24T17:16:35.607Z,67.94
2024-03-24T17:19:10.426Z,68.19
2024-03-24T17:21:39.239Z,67.94
2024-03-24T17:24:08.560Z,67.65
2024-03-24T17:26:37.426Z,67.00
2024-03-24T17:29:07.857Z,66.91
2024-03-24T17:31:38.454Z,67.08
2024-03-24T17:34:07.169Z,67.24
2024-03-24T17:36:36.139Z,66.80
2024-03-24T17:39:09.625Z,66.69
2024-03-24T17:41:39.790Z,66.63
2024-03-24T17:44:10.738Z,66.08
2024-03-24T17:46:41.244Z,66.18
2024-03-24T17:49:09.995Z,66.30
2024-03-24T17:51:38.901Z,66.32
2024-03-24T17:54:07.827Z,66.06
2024-03-24T17:56:36.767Z,66.07
2024-03-24T17:59:05.578Z,65.93
2024-03-24T18:01:37.065Z,65.62
2024-03-24T18:04:07.812Z,65.31
2024-03-24T18:06:41.332Z,65.13
2024-03-24T18:09:30.459Z,65.23
2024-03-24T18:12:17.408Z,65.49
2024-03-24T18:14:49.185Z,65.88
2024-03-24T18:17:22.168Z,65.48
2024-03-24T18:20:04.554Z,65.52
2024-03-24T18:22:36.251Z,65.38
2024-03-24T18:25:06.972Z,65.64
2024-03-24T18:27:39.996Z,65.82
2024-03-24T18:30:13.356Z,65.33
2024-03-24T18:32:43.341Z,64.52
2024-03-24T18:35:12.105Z,64.74
2024-03-24T18:37:45.967Z,64.03
2024-03-24T18:40:16.629Z,63.67
2024-03-24T18:42:47.863Z,64.25
2024-03-24T18:45:16.657Z,64.38
2024-03-24T18:47:45.231Z,64.34
2024-03-24T18:50:14.016Z,63.90
2024-03-24T18:52:43.165Z,63.29
2024-03-24T18:55:11.996Z,62.62
2024-03-24T18:57:40.698Z,63.11
2024-03-24T19:00:10.615Z,63.41
2024-03-24T19:02:39.399Z,63.45
2024-03-24T19:05:09.420Z,62.95
2024-03-24T19:07:38.618Z,62.31
2024-03-24T19:10:08.811Z,62.33
2024-03-24T19:12:37.473Z,63.17
2024-03-24T19:15:08.873Z,63.40
2024-03-24T19:17:37.687Z,63.25
2024-03-24T19:20:11.853Z,62.54
2024-03-24T19:22:43.351Z,62.33
2024-03-24T19:25:16.379Z,62.88
2024-03-24T19:27:48.195Z,62.99
2024-03-24T19:30:18.802Z,61.44
2024-03-24T19:32:48.220Z,60.78
2024-03-24T19:35:16.990Z,61.34
2024-03-24T19:37:45.820Z,61.26
2024-03-24T19:40:15.100Z,61.22
2024-03-24T19:42:44.244Z,61.03
2024-03-24T19:45:12.906Z,61.08
2024-03-24T19:47:41.901Z,61.23
2024-03-24T19:50:13.439Z,60.82
2024-03-24T19:52:42.333Z,60.40
2024-03-24T19:55:11.525Z,58.92
2024-03-24T19:57:45.586Z,59.30
2024-03-24T20:00:14.855Z,57.61
2024-03-24T20:02:44.436Z,57.50
2024-03-24T20:05:13.358Z,58.17
2024-03-24T20:07:42.105Z,58.81
2024-03-24T20:10:12.422Z,57.71
2024-03-24T20:12:41.446Z,57.17
2024-03-24T20:15:11.319Z,57.03
2024-03-24T20:17:40.063Z,57.11
2024-03-24T20:20:09.242Z,57.85
2024-03-24T20:22:37.917Z,56.32
2024-03-24T20:25:07.048Z,57.33
2024-03-24T20:27:35.898Z,57.04
2024-03-24T20:30:04.689Z,56.81
2024-03-24T20:32:33.585Z,56.68
2024-03-24T20:35:02.355Z,56.18
2024-03-24T20:37:31.126Z,56.62
2024-03-24T20:39:59.750Z,56.50
2024-03-24T20:42:28.637Z,54.96
2024-03-24T20:44:57.701Z,54.30
2024-03-24T20:47:26.628Z,55.68
2024-03-24T20:49:55.941Z,55.26
2024-03-24T20:52:24.542Z,55.58
2024-03-24T20:54:54.218Z,55.84
2024-03-24T20:57:23.086Z,55.61
2024-03-24T20:59:51.766Z,55.25
2024-03-24T21:02:20.751Z,54.97
2024-03-24T21:04:49.311Z,54.24
2024-03-24T21:07:18.312Z,56.06
2024-03-24T21:09:47.217Z,55.33
2024-03-24T21:12:15.982Z,55.73
2024-03-24T21:14:44.588Z,54.70
2024-03-24T21:17:13.232Z,53.56
2024-03-24T21:19:41.862Z,54.40
2024-03-24T21:22:10.661Z,53.40
2024-03-24T21:24:39.349Z,52.77
2024-03-24T21:27:09.538Z,53.80
2024-03-24T21:29:39.621Z,51.18
2024-03-24T21:32:08.718Z,50.54
2024-03-24T21:34:38.946Z,52.33
2024-03-24T21:37:07.863Z,52.50
2024-03-24T21:39:57.012Z,52.00
2024-03-24T21:42:28.722Z,52.48
2024-03-24T21:44:57.467Z,51.16
2024-03-24T21:47:26.078Z,50.76
2024-03-24T21:49:57.342Z,49.88
2024-03-24T21:52:25.929Z,49.30
2024-03-24T21:54:54.586Z,49.69
2024-03-24T21:57:23.343Z,49.53
2024-03-24T21:59:52.009Z,49.06
2024-03-24T22:02:21.547Z,49.64
2024-03-24T22:04:50.156Z,48.84
2024-03-24T22:07:35.073Z,48.66
2024-03-24T22:10:10.508Z,48.10
2024-03-24T22:12:39.271Z,48.74
2024-03-24T22:15:08.776Z,48.04
2024-03-24T22:17:38.211Z,47.23
2024-03-24T22:20:09.078Z,47.29
2024-03-24T22:22:37.795Z,48.51
2024-03-24T22:25:08.394Z,47.65
2024-03-24T22:27:38.083Z,48.17
2024-03-24T22:30:08.600Z,47.75
2024-03-24T22:32:37.407Z,47.38
2024-03-24T22:35:06.790Z,47.61
2024-03-24T22:37:35.552Z,47.56
2024-03-24T22:40:05.259Z,47.92
2024-03-24T22:42:34.082Z,47.75
2024-03-24T22:45:06.582Z,47.61
2024-03-24T22:47:38.468Z,46.30
2024-03-24T22:50:07.784Z,45.31
2024-03-24T22:52:37.306Z,46.27
2024-03-24T22:55:06.648Z,45.63
2024-03-24T22:57:38.750Z,45.47
2024-03-24T23:00:13.501Z,45.93
2024-03-24T23:02:45.157Z,45.85
2024-03-24T23:05:14.172Z,46.10
2024-03-24T23:07:44.325Z,45.68
2024-03-24T23:10:16.446Z,44.50
2024-03-24T23:12:45.095Z,45.39
2024-03-24T23:15:13.850Z,43.36
2024-03-24T23:17:45.170Z,43.70
2024-03-24T23:20:15.138Z,44.51
2024-03-24T23:22:43.849Z,43.76
2024-03-24T23:25:12.659Z,44.45
2024-03-24T23:27:44.666Z,42.70
2024-03-24T23:30:18.815Z,43.60
2024-03-24T23:32:48.102Z,43.57
2024-03-24T23:35:19.791Z,42.83
2024-03-24T23:37:48.398Z,41.70
2024-03-24T23:40:20.129Z,41.44
2024-03-24T23:42:56.993Z,41.84
2024-03-24T23:45:27.444Z,42.07
2024-03-24T23:47:56.652Z,41.86
2024-03-24T23:50:27.239Z,42.05
2024-03-24T23:52:55.977Z,41.10
2024-03-24T23:55:24.637Z,41.17
2024-03-24T23:57:59.272Z,42.37
